Share

Dillingham, AK (99576)

Dillingham (PADL) Elev 95 ft | 59.04 °N, 158.51 °W | Change Station

Current weather conditions updated 47 minutes ago

Mostly Cloudy
Mostly Cloudy
39 °F
Feels Like 33 °F
N
9
Wind Variable Wind from NE
Sunrise 7:10 AM
Sunset 9:56 PM
Moon Waning Gibbous

Today is forecast to be nearly the same temperature as yesterday. Occasional showers possible.

Pressure 29.40 in
Visibility 15.0 miles
Clouds Scattered Clouds 1500 ft
Mostly Cloudy 3000 ft
Mostly Cloudy 7000 ft
Windchill 33 °F
Dew Point 36 °F
Humidity 87%
Rainfall 0.00 in
Snow Depth Not available.
UV 3 out of 16
Pollen Not available.
Air Quality Not available.
Flu Activity Sporadic
METAR PADL 182146Z 05008KT 15SM SCT015 BKN030 BKN070 04/02 A2940

More Conditions Fewer Conditions

Pressure 29.40 in
Visibility 15.0 miles
Clouds Scattered Clouds 1500 ft
Mostly Cloudy 3000 ft
Mostly Cloudy 7000 ft
Windchill 33 °F
Dew Point 36 °F
Humidity 87%
Rainfall 0.00 in
Snow Depth Not available.
UV 3 out of 16
Pollen Not available.
Air Quality Not available.
Flu Activity Sporadic
METAR PADL 182146Z 05008KT 15SM SCT015 BKN030 BKN070 04/02 A2940

More Conditions Fewer Conditions

10-Day Weather Forecast

Almanac

Astronomy

Apr. 18, 2014 Rise Set
Actual Time 7:10 AM AKDT 9:56 PM AKDT
Civil Twilight 6:25 AM AKDT 10:42 PM AKDT
Nautical Twilight 5:24 AM AKDT 11:44 PM AKDT
Astronomical Twilight 3:57 AM AKDT 1:14 AM AKDT
Moon 1:24 AM AKDT 9:09 AM AKDT
Length of Visible Light 16h 17m
Length of Day
14h 45m
Tomorrow will be 5m 9s longer.
Waning Gibbous, 85% of the Moon is Illuminated
Today
Waning Gibbous
Apr 22
Last Quarter
Apr 29
New
May 6
First Quarter
May 14
Full

Today's Extremes

State Highs State Lows

Community

  • Spring Chickadee
    Spring Chickadee
  • What's for Lunch?
    What's for Lunch?
  • SUNRISE THROUGH THE TREES.
    SUNRISE THROUGH THE TREES.
  • Dog Wood Blossoms
    Dog Wood Blossoms
  • Morning Light
    Morning Light

WunderPhotos

Upload Photos

1,702,527 photos uploaded!

WunderBlogs® & News

Nearby

Snow Depth

Station Depth Elevation
Port Graham 8 in 300 ft
Mcneil Canyon 10 in 1320 ft
MF Bradley River 22 in 2300 ft
Nuka Glacier 34 in 1250 ft
Cooper Lake 22 in 1200 ft

Coastal Water Temperatures

Place Temperature
No Stations Reporting

Earthquake Activity

City Distance Mag. Time & Date
No recent earthquake activity has been reported nearby.
Minimum magnitude displayed is 2.5.

Nearby Weather Stations

Station Location Temp. Windchill Dew Point Humidity Wind Precip. Elev Updated Type
MesoWest WEARY LAKE , Manokotak, AK 38 °F 38 °F - - North  at  - 0.00 in / hr 100 ft 1:00 PM AKDT MADIS

Show More Stations Show Fewer Stations

What do you think?

We're not finished. Please let us know what you like, what you don't like, and what you are still missing.